CheckWX is a tool to help pilots better visualize weather data.  It is not intended as a substitute for an official pre-flight weather briefing.

11:27:39 UTC

KLJF METAR
Litchfield Municipal Airport
Litchfield, Minnesota, USA
Current

13 mins ago

KLJF 141115Z AUTO 00000KT 10SM SCT090 01/01 A2999 RMK AO2
Observed
Oct-14 @ 11:15 UTC
Visibility
10 SM
Flight Rules
VFR
Cloud Levels
  • Scattered at 9,000' AGL
Temperature
C / 34°F
Dewpoint
C / 34°F
Humidity
100%
Altimeter
29.99" Hg
Pressure
1015.62 hPa
Previous

32 mins ago

KLJF 141056Z AUTO 00000KT 10SM BKN090 01/01 A2999 RMK AO2
Observed
Oct-14 @ 10:56 UTC
Visibility
10 SM
Flight Rules
VFR
Cloud Levels
  • Broken at 9,000' AGL
Temperature
C / 34°F
Dewpoint
C / 34°F
Humidity
100%
Altimeter
29.99" Hg
Pressure
1015.62 hPa
Previous

52 mins ago

KLJF 141036Z AUTO 26003KT 10SM SCT090 01/01 A2999 RMK AO2
Observed
Oct-14 @ 10:36 UTC
Wind
  • 260° at 3 KTS
Visibility
10 SM
Flight Rules
VFR
Cloud Levels
  • Scattered at 9,000' AGL
Temperature
C / 34°F
Dewpoint
C / 34°F
Humidity
100%
Altimeter
29.99" Hg
Pressure
1015.62 hPa